Аэропорт: Астана. Астана

ICAO: UACC

METAR:
2018/05/20 19:00
UACC 201900Z 20004MPS CAVOK 10/M01 Q1023 R22/0///70 NOSIG RMK QFE735/0981
METAR:
2018/05/20 18:18
TAF UACC 201700Z 2018/2118 24008MPS 9999 NSC TX27/2109Z TN10/2023Z 
      BECMG 2102/2104 25008G13MPS 
      BECMG 2106/2108 SCT040CB BKN100 
      BECMG 2112/2114 25006MPS PROB40 
      TEMPO 2110/2118 TS BKN040CB